Puerto del Rosario, Spain
Current Conditions -  °F | °C
As of 8:30 PM on Saturday 20 Dec 2014 (Local Time) from GCFV Reporting Station
Scattered Clouds Scattered Clouds  
Wind Chill: 19°   Ceiling: Unl
Heat Index: 19°   Visibility: 6mi
Dew Point: 16°   Wind: 16mph
Humidity: 83%   Direction: 40°NE
Pressure: 30.33"   Gusts: NA
Location:  28.5°N, 13.86°W
Report Text: GCFV 202030Z 04014KT 9999 SCT018 19/16 Q1027
Loading
Personal Weather Stations






























Interactive Weather Map New forecast layout! Learn more

10-Day Weather Forecast

Advertisements
Track Severe Weather on mobile